sensor_id;sensor_type;location;lat;lon;timestamp;P1;durP1;ratioP1;P2;durP2;ratioP2
46348;SDS011;32057;47.830;19.046;2022-10-31T00:00:28;10.00;;;6.40;;
46348;SDS011;32057;47.830;19.046;2022-10-31T00:02:53;12.40;;;7.95;;
46348;SDS011;32057;47.830;19.046;2022-10-31T00:05:18;18.58;;;7.40;;
46348;SDS011;32057;47.830;19.046;2022-10-31T00:07:44;12.35;;;7.88;;
46348;SDS011;32057;47.830;19.046;2022-10-31T00:10:09;15.43;;;8.52;;
46348;SDS011;32057;47.830;19.046;2022-10-31T00:12:34;10.00;;;6.53;;
46348;SDS011;32057;47.830;19.046;2022-10-31T00:15:00;12.32;;;7.65;;
46348;SDS011;32057;47.830;19.046;2022-10-31T00:17:25;14.10;;;9.60;;
46348;SDS011;32057;47.830;19.046;2022-10-31T00:19:51;12.77;;;7.63;;
46348;SDS011;32057;47.830;19.046;2022-10-31T00:22:16;11.27;;;7.38;;
46348;SDS011;32057;47.830;19.046;2022-10-31T00:24:42;20.20;;;8.38;;
46348;SDS011;32057;47.830;19.046;2022-10-31T00:27:07;11.82;;;7.30;;
46348;SDS011;32057;47.830;19.046;2022-10-31T00:29:32;14.90;;;8.45;;
46348;SDS011;32057;47.830;19.046;2022-10-31T00:31:58;13.50;;;8.32;;
46348;SDS011;32057;47.830;19.046;2022-10-31T00:34:23;9.18;;;7.32;;
46348;SDS011;32057;47.830;19.046;2022-10-31T00:36:49;11.27;;;7.43;;
46348;SDS011;32057;47.830;19.046;2022-10-31T00:39:14;15.38;;;8.73;;
46348;SDS011;32057;47.830;19.046;2022-10-31T00:41:39;10.90;;;7.75;;
46348;SDS011;32057;47.830;19.046;2022-10-31T00:44:05;10.50;;;6.45;;
46348;SDS011;32057;47.830;19.046;2022-10-31T00:46:30;11.90;;;7.20;;
46348;SDS011;32057;47.830;19.046;2022-10-31T00:48:55;14.15;;;8.13;;
46348;SDS011;32057;47.830;19.046;2022-10-31T00:51:21;13.77;;;8.55;;
46348;SDS011;32057;47.830;19.046;2022-10-31T00:53:46;16.73;;;7.97;;
46348;SDS011;32057;47.830;19.046;2022-10-31T00:56:12;13.73;;;9.15;;
46348;SDS011;32057;47.830;19.046;2022-10-31T00:58:37;9.93;;;7.28;;
46348;SDS011;32057;47.830;19.046;2022-10-31T01:01:03;14.80;;;8.73;;
46348;SDS011;32057;47.830;19.046;2022-10-31T01:03:29;11.75;;;7.32;;
46348;SDS011;32057;47.830;19.046;2022-10-31T01:08:32;16.70;;;8.75;;
46348;SDS011;32057;47.830;19.046;2022-10-31T01:11:02;9.60;;;6.38;;
46348;SDS011;32057;47.830;19.046;2022-10-31T01:13:28;13.48;;;8.13;;
46348;SDS011;32057;47.830;19.046;2022-10-31T01:15:54;10.55;;;7.47;;
46348;SDS011;32057;47.830;19.046;2022-10-31T01:18:21;13.60;;;8.25;;
46348;SDS011;32057;47.830;19.046;2022-10-31T01:20:46;13.43;;;8.02;;
46348;SDS011;32057;47.830;19.046;2022-10-31T01:23:12;14.27;;;7.32;;
46348;SDS011;32057;47.830;19.046;2022-10-31T01:25:37;18.08;;;8.43;;
46348;SDS011;32057;47.830;19.046;2022-10-31T01:28:03;14.50;;;8.38;;
46348;SDS011;32057;47.830;19.046;2022-10-31T01:30:28;14.93;;;8.18;;
46348;SDS011;32057;47.830;19.046;2022-10-31T01:32:53;11.40;;;7.28;;
46348;SDS011;32057;47.830;19.046;2022-10-31T01:35:19;14.80;;;8.13;;
46348;SDS011;32057;47.830;19.046;2022-10-31T01:37:44;13.82;;;8.25;;
46348;SDS011;32057;47.830;19.046;2022-10-31T01:40:09;12.20;;;7.93;;
46348;SDS011;32057;47.830;19.046;2022-10-31T01:42:35;15.35;;;9.27;;
46348;SDS011;32057;47.830;19.046;2022-10-31T01:45:01;12.85;;;7.38;;
46348;SDS011;32057;47.830;19.046;2022-10-31T01:47:30;10.32;;;7.63;;
46348;SDS011;32057;47.830;19.046;2022-10-31T01:49:59;11.65;;;7.72;;
46348;SDS011;32057;47.830;19.046;2022-10-31T01:52:29;10.77;;;8.35;;
46348;SDS011;32057;47.830;19.046;2022-10-31T01:55:01;10.90;;;8.05;;
46348;SDS011;32057;47.830;19.046;2022-10-31T01:57:31;15.45;;;8.38;;
46348;SDS011;32057;47.830;19.046;2022-10-31T01:59:59;13.32;;;7.53;;
46348;SDS011;32057;47.830;19.046;2022-10-31T02:02:27;10.48;;;7.38;;
46348;SDS011;32057;47.830;19.046;2022-10-31T02:04:55;11.23;;;7.32;;
46348;SDS011;32057;47.830;19.046;2022-10-31T02:07:30;10.52;;;7.30;;
46348;SDS011;32057;47.830;19.046;2022-10-31T02:10:02;8.80;;;5.88;;
46348;SDS011;32057;47.830;19.046;2022-10-31T02:12:28;12.15;;;8.07;;
46348;SDS011;32057;47.830;19.046;2022-10-31T02:14:56;9.15;;;5.90;;
46348;SDS011;32057;47.830;19.046;2022-10-31T02:17:22;12.93;;;7.25;;
46348;SDS011;32057;47.830;19.046;2022-10-31T02:34:22;15.80;;;7.57;;
46348;SDS011;32057;47.830;19.046;2022-10-31T02:37:12;11.38;;;7.95;;
46348;SDS011;32057;47.830;19.046;2022-10-31T02:39:45;14.25;;;7.07;;
46348;SDS011;32057;47.830;19.046;2022-10-31T02:42:34;12.20;;;6.75;;
46348;SDS011;32057;47.830;19.046;2022-10-31T02:45:12;8.32;;;5.65;;
46348;SDS011;32057;47.830;19.046;2022-10-31T02:47:45;11.65;;;6.82;;
46348;SDS011;32057;47.830;19.046;2022-10-31T02:50:15;11.13;;;6.93;;
46348;SDS011;32057;47.830;19.046;2022-10-31T02:52:49;12.40;;;6.63;;
46348;SDS011;32057;47.830;19.046;2022-10-31T02:57:48;10.52;;;6.65;;
46348;SDS011;32057;47.830;19.046;2022-10-31T03:00:14;9.02;;;6.00;;
46348;SDS011;32057;47.830;19.046;2022-10-31T03:13:35;8.30;;;6.15;;
46348;SDS011;32057;47.830;19.046;2022-10-31T03:16:10;7.35;;;4.78;;
46348;SDS011;32057;47.830;19.046;2022-10-31T03:18:41;10.35;;;5.88;;
46348;SDS011;32057;47.830;19.046;2022-10-31T03:21:22;15.45;;;6.50;;
46348;SDS011;32057;47.830;19.046;2022-10-31T03:24:19;9.10;;;5.93;;
46348;SDS011;32057;47.830;19.046;2022-10-31T03:26:46;12.65;;;5.88;;
46348;SDS011;32057;47.830;19.046;2022-10-31T03:29:16;11.07;;;5.65;;
46348;SDS011;32057;47.830;19.046;2022-10-31T03:34:16;12.05;;;6.82;;
46348;SDS011;32057;47.830;19.046;2022-10-31T03:36:44;13.73;;;7.05;;
46348;SDS011;32057;47.830;19.046;2022-10-31T03:39:14;12.93;;;6.38;;
46348;SDS011;32057;47.830;19.046;2022-10-31T03:41:43;13.80;;;5.40;;
46348;SDS011;32057;47.830;19.046;2022-10-31T03:44:13;11.05;;;6.13;;
46348;SDS011;32057;47.830;19.046;2022-10-31T03:46:42;12.07;;;6.32;;
46348;SDS011;32057;47.830;19.046;2022-10-31T03:49:09;7.60;;;4.97;;
46348;SDS011;32057;47.830;19.046;2022-10-31T03:51:43;11.95;;;6.10;;
46348;SDS011;32057;47.830;19.046;2022-10-31T03:54:31;12.85;;;6.28;;
46348;SDS011;32057;47.830;19.046;2022-10-31T03:57:06;8.73;;;5.28;;
46348;SDS011;32057;47.830;19.046;2022-10-31T03:59:41;8.73;;;5.78;;
46348;SDS011;32057;47.830;19.046;2022-10-31T04:02:20;7.03;;;4.50;;
46348;SDS011;32057;47.830;19.046;2022-10-31T04:04:50;14.48;;;6.85;;
46348;SDS011;32057;47.830;19.046;2022-10-31T04:07:16;8.73;;;5.25;;
46348;SDS011;32057;47.830;19.046;2022-10-31T04:09:44;10.93;;;5.85;;
46348;SDS011;32057;47.830;19.046;2022-10-31T04:12:11;13.40;;;7.32;;
46348;SDS011;32057;47.830;19.046;2022-10-31T04:14:41;12.98;;;6.28;;
46348;SDS011;32057;47.830;19.046;2022-10-31T04:17:11;11.20;;;5.05;;
46348;SDS011;32057;47.830;19.046;2022-10-31T04:19:39;9.82;;;5.25;;
46348;SDS011;32057;47.830;19.046;2022-10-31T04:22:05;10.80;;;5.72;;
46348;SDS011;32057;47.830;19.046;2022-10-31T04:24:31;7.78;;;6.22;;
46348;SDS011;32057;47.830;19.046;2022-10-31T04:26:56;9.57;;;6.07;;
46348;SDS011;32057;47.830;19.046;2022-10-31T04:29:21;8.35;;;5.43;;
46348;SDS011;32057;47.830;19.046;2022-10-31T04:31:47;9.80;;;6.05;;
46348;SDS011;32057;47.830;19.046;2022-10-31T04:34:12;6.13;;;4.68;;
46348;SDS011;32057;47.830;19.046;2022-10-31T04:36:38;6.70;;;5.10;;
46348;SDS011;32057;47.830;19.046;2022-10-31T04:39:03;10.60;;;5.95;;
46348;SDS011;32057;47.830;19.046;2022-10-31T04:41:29;11.38;;;5.07;;
46348;SDS011;32057;47.830;19.046;2022-10-31T04:43:54;8.73;;;4.93;;
46348;SDS011;32057;47.830;19.046;2022-10-31T04:46:19;9.73;;;5.43;;
46348;SDS011;32057;47.830;19.046;2022-10-31T04:48:45;13.75;;;5.68;;
46348;SDS011;32057;47.830;19.046;2022-10-31T04:51:10;13.05;;;6.07;;
46348;SDS011;32057;47.830;19.046;2022-10-31T04:53:36;13.30;;;6.57;;
46348;SDS011;32057;47.830;19.046;2022-10-31T04:56:01;13.52;;;5.25;;
46348;SDS011;32057;47.830;19.046;2022-10-31T04:58:27;9.25;;;4.90;;
46348;SDS011;32057;47.830;19.046;2022-10-31T05:00:53;9.05;;;4.75;;
46348;SDS011;32057;47.830;19.046;2022-10-31T05:03:19;9.55;;;6.50;;
46348;SDS011;32057;47.830;19.046;2022-10-31T05:05:45;12.35;;;6.30;;
46348;SDS011;32057;47.830;19.046;2022-10-31T05:08:11;9.20;;;4.90;;
46348;SDS011;32057;47.830;19.046;2022-10-31T05:10:36;11.13;;;5.78;;
46348;SDS011;32057;47.830;19.046;2022-10-31T05:13:02;8.80;;;5.18;;
46348;SDS011;32057;47.830;19.046;2022-10-31T05:15:29;13.60;;;6.82;;
46348;SDS011;32057;47.830;19.046;2022-10-31T05:17:55;13.02;;;5.95;;
46348;SDS011;32057;47.830;19.046;2022-10-31T05:20:22;12.38;;;6.47;;
46348;SDS011;32057;47.830;19.046;2022-10-31T05:22:53;8.85;;;5.75;;
46348;SDS011;32057;47.830;19.046;2022-10-31T05:25:21;9.93;;;6.38;;
46348;SDS011;32057;47.830;19.046;2022-10-31T05:27:49;18.90;;;8.85;;
46348;SDS011;32057;47.830;19.046;2022-10-31T05:30:16;15.88;;;7.68;;
46348;SDS011;32057;47.830;19.046;2022-10-31T05:32:45;13.73;;;7.05;;
46348;SDS011;32057;47.830;19.046;2022-10-31T05:35:13;15.95;;;8.27;;
46348;SDS011;32057;47.830;19.046;2022-10-31T05:37:40;22.80;;;8.95;;
46348;SDS011;32057;47.830;19.046;2022-10-31T05:40:07;17.20;;;8.60;;
46348;SDS011;32057;47.830;19.046;2022-10-31T05:42:34;12.18;;;7.15;;
46348;SDS011;32057;47.830;19.046;2022-10-31T05:45:00;11.85;;;8.25;;
46348;SDS011;32057;47.830;19.046;2022-10-31T05:47:26;11.52;;;7.75;;
46348;SDS011;32057;47.830;19.046;2022-10-31T05:49:51;16.38;;;8.80;;
46348;SDS011;32057;47.830;19.046;2022-10-31T05:52:17;18.02;;;6.90;;
46348;SDS011;32057;47.830;19.046;2022-10-31T05:54:43;16.25;;;7.55;;
46348;SDS011;32057;47.830;19.046;2022-10-31T05:57:08;13.63;;;7.47;;
46348;SDS011;32057;47.830;19.046;2022-10-31T05:59:34;13.00;;;8.07;;
46348;SDS011;32057;47.830;19.046;2022-10-31T06:01:59;15.45;;;9.43;;
46348;SDS011;32057;47.830;19.046;2022-10-31T06:04:25;15.95;;;9.85;;
46348;SDS011;32057;47.830;19.046;2022-10-31T06:06:50;17.23;;;9.25;;
46348;SDS011;32057;47.830;19.046;2022-10-31T06:09:15;15.63;;;9.77;;
46348;SDS011;32057;47.830;19.046;2022-10-31T06:11:41;17.75;;;10.35;;
46348;SDS011;32057;47.830;19.046;2022-10-31T06:14:06;18.98;;;11.00;;
46348;SDS011;32057;47.830;19.046;2022-10-31T06:16:32;22.05;;;9.40;;
46348;SDS011;32057;47.830;19.046;2022-10-31T06:18:57;22.17;;;10.07;;
46348;SDS011;32057;47.830;19.046;2022-10-31T06:21:23;18.45;;;10.63;;
46348;SDS011;32057;47.830;19.046;2022-10-31T06:23:48;20.13;;;11.48;;
46348;SDS011;32057;47.830;19.046;2022-10-31T06:26:14;19.52;;;9.18;;
46348;SDS011;32057;47.830;19.046;2022-10-31T06:28:39;23.05;;;11.90;;
46348;SDS011;32057;47.830;19.046;2022-10-31T06:31:04;16.40;;;10.23;;
46348;SDS011;32057;47.830;19.046;2022-10-31T06:33:30;18.45;;;10.30;;
46348;SDS011;32057;47.830;19.046;2022-10-31T06:35:55;14.18;;;8.18;;
46348;SDS011;32057;47.830;19.046;2022-10-31T06:38:21;16.10;;;9.18;;
46348;SDS011;32057;47.830;19.046;2022-10-31T06:40:46;15.18;;;8.88;;
46348;SDS011;32057;47.830;19.046;2022-10-31T06:43:12;15.10;;;10.48;;
46348;SDS011;32057;47.830;19.046;2022-10-31T06:45:39;13.90;;;7.70;;
46348;SDS011;32057;47.830;19.046;2022-10-31T06:48:04;14.93;;;8.85;;
46348;SDS011;32057;47.830;19.046;2022-10-31T06:50:30;22.17;;;10.55;;
46348;SDS011;32057;47.830;19.046;2022-10-31T06:52:56;14.25;;;8.50;;
46348;SDS011;32057;47.830;19.046;2022-10-31T06:55:23;14.95;;;9.02;;
46348;SDS011;32057;47.830;19.046;2022-10-31T06:57:53;11.40;;;8.00;;
46348;SDS011;32057;47.830;19.046;2022-10-31T07:00:26;18.08;;;9.13;;
46348;SDS011;32057;47.830;19.046;2022-10-31T07:03:12;12.77;;;8.35;;
46348;SDS011;32057;47.830;19.046;2022-10-31T07:05:38;12.15;;;7.55;;
46348;SDS011;32057;47.830;19.046;2022-10-31T07:08:05;19.48;;;8.02;;
46348;SDS011;32057;47.830;19.046;2022-10-31T07:10:34;15.48;;;7.20;;
46348;SDS011;32057;47.830;19.046;2022-10-31T07:13:01;13.85;;;7.55;;
46348;SDS011;32057;47.830;19.046;2022-10-31T07:15:30;9.90;;;6.95;;
46348;SDS011;32057;47.830;19.046;2022-10-31T07:17:59;11.57;;;7.82;;
46348;SDS011;32057;47.830;19.046;2022-10-31T07:20:29;11.50;;;8.27;;
46348;SDS011;32057;47.830;19.046;2022-10-31T07:22:55;14.25;;;8.77;;
46348;SDS011;32057;47.830;19.046;2022-10-31T07:25:20;11.98;;;7.40;;
46348;SDS011;32057;47.830;19.046;2022-10-31T07:27:46;10.73;;;6.75;;
46348;SDS011;32057;47.830;19.046;2022-10-31T07:30:12;8.68;;;6.57;;
46348;SDS011;32057;47.830;19.046;2022-10-31T07:32:45;10.38;;;7.10;;
46348;SDS011;32057;47.830;19.046;2022-10-31T07:35:13;9.07;;;6.22;;
46348;SDS011;32057;47.830;19.046;2022-10-31T07:37:40;11.43;;;6.40;;
46348;SDS011;32057;47.830;19.046;2022-10-31T07:40:06;16.25;;;8.63;;
46348;SDS011;32057;47.830;19.046;2022-10-31T07:42:39;13.73;;;7.20;;
46348;SDS011;32057;47.830;19.046;2022-10-31T07:45:11;13.98;;;6.22;;
46348;SDS011;32057;47.830;19.046;2022-10-31T07:47:38;8.18;;;5.50;;
46348;SDS011;32057;47.830;19.046;2022-10-31T07:50:08;12.45;;;6.38;;
46348;SDS011;32057;47.830;19.046;2022-10-31T07:52:34;9.18;;;5.35;;
46348;SDS011;32057;47.830;19.046;2022-10-31T07:55:00;12.90;;;5.53;;
46348;SDS011;32057;47.830;19.046;2022-10-31T07:57:26;10.30;;;7.50;;
46348;SDS011;32057;47.830;19.046;2022-10-31T07:59:51;12.00;;;8.27;;
46348;SDS011;32057;47.830;19.046;2022-10-31T08:02:16;10.93;;;6.55;;
46348;SDS011;32057;47.830;19.046;2022-10-31T08:04:42;8.82;;;5.80;;
46348;SDS011;32057;47.830;19.046;2022-10-31T08:07:07;11.38;;;6.25;;
46348;SDS011;32057;47.830;19.046;2022-10-31T08:09:33;9.43;;;6.93;;
46348;SDS011;32057;47.830;19.046;2022-10-31T08:11:58;11.48;;;6.68;;
46348;SDS011;32057;47.830;19.046;2022-10-31T08:14:24;15.85;;;9.55;;
46348;SDS011;32057;47.830;19.046;2022-10-31T08:16:49;15.65;;;8.43;;
46348;SDS011;32057;47.830;19.046;2022-10-31T08:19:14;10.25;;;6.80;;
46348;SDS011;32057;47.830;19.046;2022-10-31T08:21:40;8.48;;;6.18;;
46348;SDS011;32057;47.830;19.046;2022-10-31T08:24:05;11.23;;;6.72;;
46348;SDS011;32057;47.830;19.046;2022-10-31T08:26:31;13.77;;;7.22;;
46348;SDS011;32057;47.830;19.046;2022-10-31T08:28:56;14.30;;;7.60;;
46348;SDS011;32057;47.830;19.046;2022-10-31T08:31:22;9.35;;;6.82;;
46348;SDS011;32057;47.830;19.046;2022-10-31T08:33:48;16.23;;;8.40;;
46348;SDS011;32057;47.830;19.046;2022-10-31T08:36:13;13.73;;;7.07;;
46348;SDS011;32057;47.830;19.046;2022-10-31T08:38:39;16.52;;;8.43;;
46348;SDS011;32057;47.830;19.046;2022-10-31T08:41:04;11.30;;;6.18;;
46348;SDS011;32057;47.830;19.046;2022-10-31T08:43:30;13.52;;;8.30;;
46348;SDS011;32057;47.830;19.046;2022-10-31T08:45:55;11.98;;;8.80;;
46348;SDS011;32057;47.830;19.046;2022-10-31T08:48:21;15.50;;;8.98;;
46348;SDS011;32057;47.830;19.046;2022-10-31T08:50:46;14.48;;;7.95;;
46348;SDS011;32057;47.830;19.046;2022-10-31T08:53:13;12.23;;;7.70;;
46348;SDS011;32057;47.830;19.046;2022-10-31T08:55:44;14.60;;;8.60;;
46348;SDS011;32057;47.830;19.046;2022-10-31T08:58:12;11.20;;;7.18;;
46348;SDS011;32057;47.830;19.046;2022-10-31T09:00:44;9.63;;;5.55;;
46348;SDS011;32057;47.830;19.046;2022-10-31T09:03:16;10.35;;;7.30;;
46348;SDS011;32057;47.830;19.046;2022-10-31T09:05:49;12.20;;;6.68;;
46348;SDS011;32057;47.830;19.046;2022-10-31T09:08:15;13.18;;;7.38;;
46348;SDS011;32057;47.830;19.046;2022-10-31T09:10:41;13.18;;;7.03;;
46348;SDS011;32057;47.830;19.046;2022-10-31T09:13:26;14.52;;;8.27;;
46348;SDS011;32057;47.830;19.046;2022-10-31T09:15:51;14.93;;;8.13;;
46348;SDS011;32057;47.830;19.046;2022-10-31T09:18:21;13.80;;;8.48;;
46348;SDS011;32057;47.830;19.046;2022-10-31T09:20:48;11.40;;;6.03;;
46348;SDS011;32057;47.830;19.046;2022-10-31T09:23:15;12.30;;;7.13;;
46348;SDS011;32057;47.830;19.046;2022-10-31T09:25:42;10.20;;;6.95;;
46348;SDS011;32057;47.830;19.046;2022-10-31T09:28:10;12.90;;;7.32;;
46348;SDS011;32057;47.830;19.046;2022-10-31T09:30:36;16.70;;;7.97;;
46348;SDS011;32057;47.830;19.046;2022-10-31T09:33:06;14.15;;;7.88;;
46348;SDS011;32057;47.830;19.046;2022-10-31T09:35:34;10.38;;;7.70;;
46348;SDS011;32057;47.830;19.046;2022-10-31T09:38:00;10.48;;;7.18;;
46348;SDS011;32057;47.830;19.046;2022-10-31T09:40:31;10.43;;;7.18;;
46348;SDS011;32057;47.830;19.046;2022-10-31T09:51:05;13.68;;;7.63;;
46348;SDS011;32057;47.830;19.046;2022-10-31T09:53:48;12.45;;;7.30;;
46348;SDS011;32057;47.830;19.046;2022-10-31T09:56:16;14.30;;;9.90;;
46348;SDS011;32057;47.830;19.046;2022-10-31T09:58:46;12.00;;;7.18;;
46348;SDS011;32057;47.830;19.046;2022-10-31T10:04:03;16.75;;;8.23;;
46348;SDS011;32057;47.830;19.046;2022-10-31T10:06:43;12.95;;;7.55;;
46348;SDS011;32057;47.830;19.046;2022-10-31T10:09:11;13.13;;;7.20;;
46348;SDS011;32057;47.830;19.046;2022-10-31T10:17:44;11.43;;;7.15;;
46348;SDS011;32057;47.830;19.046;2022-10-31T10:25:55;10.80;;;6.75;;
46348;SDS011;32057;47.830;19.046;2022-10-31T10:28:43;13.75;;;7.15;;
46348;SDS011;32057;47.830;19.046;2022-10-31T10:31:16;12.43;;;7.60;;
46348;SDS011;32057;47.830;19.046;2022-10-31T10:34:06;8.05;;;5.30;;
46348;SDS011;32057;47.830;19.046;2022-10-31T10:36:57;10.93;;;7.20;;
46348;SDS011;32057;47.830;19.046;2022-10-31T10:41:55;9.57;;;6.90;;
46348;SDS011;32057;47.830;19.046;2022-10-31T10:44:43;10.15;;;6.22;;
46348;SDS011;32057;47.830;19.046;2022-10-31T10:47:35;12.30;;;6.63;;
46348;SDS011;32057;47.830;19.046;2022-10-31T10:50:11;12.90;;;6.50;;
46348;SDS011;32057;47.830;19.046;2022-10-31T10:58:02;13.32;;;8.63;;
46348;SDS011;32057;47.830;19.046;2022-10-31T11:00:30;12.63;;;7.22;;
46348;SDS011;32057;47.830;19.046;2022-10-31T11:02:59;13.43;;;7.47;;
46348;SDS011;32057;47.830;19.046;2022-10-31T11:08:05;11.07;;;7.28;;
46348;SDS011;32057;47.830;19.046;2022-10-31T11:10:32;15.25;;;10.38;;
46348;SDS011;32057;47.830;19.046;2022-10-31T11:13:21;14.90;;;8.15;;
46348;SDS011;32057;47.830;19.046;2022-10-31T11:15:53;10.13;;;7.32;;
46348;SDS011;32057;47.830;19.046;2022-10-31T11:18:24;9.32;;;6.13;;
46348;SDS011;32057;47.830;19.046;2022-10-31T11:20:52;13.02;;;7.50;;
46348;SDS011;32057;47.830;19.046;2022-10-31T11:23:20;11.82;;;6.88;;
46348;SDS011;32057;47.830;19.046;2022-10-31T11:25:50;10.73;;;6.47;;
46348;SDS011;32057;47.830;19.046;2022-10-31T11:28:19;13.80;;;7.15;;
46348;SDS011;32057;47.830;19.046;2022-10-31T11:30:46;8.55;;;6.18;;
46348;SDS011;32057;47.830;19.046;2022-10-31T11:33:17;7.43;;;5.80;;
46348;SDS011;32057;47.830;19.046;2022-10-31T11:38:19;8.65;;;6.63;;
46348;SDS011;32057;47.830;19.046;2022-10-31T11:40:58;11.65;;;5.93;;
46348;SDS011;32057;47.830;19.046;2022-10-31T11:43:24;11.40;;;7.45;;
46348;SDS011;32057;47.830;19.046;2022-10-31T11:45:50;9.15;;;6.20;;
46348;SDS011;32057;47.830;19.046;2022-10-31T11:48:18;8.43;;;6.25;;
46348;SDS011;32057;47.830;19.046;2022-10-31T11:50:49;14.25;;;5.85;;
46348;SDS011;32057;47.830;19.046;2022-10-31T11:53:24;8.90;;;6.30;;
46348;SDS011;32057;47.830;19.046;2022-10-31T11:58:30;12.68;;;7.70;;
46348;SDS011;32057;47.830;19.046;2022-10-31T12:00:56;12.65;;;7.13;;
46348;SDS011;32057;47.830;19.046;2022-10-31T12:08:33;9.57;;;5.03;;
46348;SDS011;32057;47.830;19.046;2022-10-31T12:30:24;7.90;;;5.82;;
46348;SDS011;32057;47.830;19.046;2022-10-31T12:41:24;7.57;;;4.93;;
46348;SDS011;32057;47.830;19.046;2022-10-31T12:44:05;9.05;;;5.57;;
46348;SDS011;32057;47.830;19.046;2022-10-31T13:00:09;7.68;;;5.32;;
46348;SDS011;32057;47.830;19.046;2022-10-31T13:07:51;10.93;;;7.25;;
46348;SDS011;32057;47.830;19.046;2022-10-31T13:13:12;11.60;;;6.70;;
46348;SDS011;32057;47.830;19.046;2022-10-31T13:16:07;12.82;;;6.65;;
46348;SDS011;32057;47.830;19.046;2022-10-31T13:18:40;8.13;;;5.20;;
46348;SDS011;32057;47.830;19.046;2022-10-31T13:21:23;7.30;;;5.45;;
46348;SDS011;32057;47.830;19.046;2022-10-31T13:23:52;7.97;;;6.35;;
46348;SDS011;32057;47.830;19.046;2022-10-31T13:26:22;9.68;;;6.00;;
46348;SDS011;32057;47.830;19.046;2022-10-31T13:29:09;7.60;;;6.07;;
46348;SDS011;32057;47.830;19.046;2022-10-31T13:31:42;9.27;;;5.78;;
46348;SDS011;32057;47.830;19.046;2022-10-31T13:34:25;8.68;;;5.38;;
46348;SDS011;32057;47.830;19.046;2022-10-31T13:37:44;8.52;;;5.32;;
46348;SDS011;32057;47.830;19.046;2022-10-31T13:42:46;9.32;;;6.03;;
46348;SDS011;32057;47.830;19.046;2022-10-31T13:45:20;7.93;;;4.95;;
46348;SDS011;32057;47.830;19.046;2022-10-31T13:48:00;7.05;;;5.28;;
46348;SDS011;32057;47.830;19.046;2022-10-31T13:50:39;7.07;;;4.65;;
46348;SDS011;32057;47.830;19.046;2022-10-31T13:55:45;9.30;;;5.65;;
46348;SDS011;32057;47.830;19.046;2022-10-31T13:58:20;15.23;;;7.72;;
46348;SDS011;32057;47.830;19.046;2022-10-31T14:03:40;7.88;;;5.75;;
46348;SDS011;32057;47.830;19.046;2022-10-31T14:06:08;9.98;;;6.57;;
46348;SDS011;32057;47.830;19.046;2022-10-31T14:08:36;9.32;;;6.40;;
46348;SDS011;32057;47.830;19.046;2022-10-31T14:11:06;11.80;;;5.88;;
46348;SDS011;32057;47.830;19.046;2022-10-31T14:13:42;12.48;;;6.90;;
46348;SDS011;32057;47.830;19.046;2022-10-31T14:18:46;10.73;;;5.68;;
46348;SDS011;32057;47.830;19.046;2022-10-31T14:23:50;8.05;;;4.95;;
46348;SDS011;32057;47.830;19.046;2022-10-31T14:28:50;11.38;;;6.18;;
46348;SDS011;32057;47.830;19.046;2022-10-31T14:31:29;8.15;;;5.45;;
46348;SDS011;32057;47.830;19.046;2022-10-31T14:33:58;8.48;;;5.95;;
46348;SDS011;32057;47.830;19.046;2022-10-31T14:36:27;8.02;;;5.75;;
46348;SDS011;32057;47.830;19.046;2022-10-31T14:41:39;9.15;;;5.38;;
46348;SDS011;32057;47.830;19.046;2022-10-31T14:44:25;7.63;;;5.82;;
46348;SDS011;32057;47.830;19.046;2022-10-31T14:47:08;8.75;;;6.05;;
46348;SDS011;32057;47.830;19.046;2022-10-31T14:54:53;11.95;;;6.38;;
46348;SDS011;32057;47.830;19.046;2022-10-31T14:57:30;9.77;;;6.20;;
46348;SDS011;32057;47.830;19.046;2022-10-31T15:00:00;9.70;;;6.75;;
46348;SDS011;32057;47.830;19.046;2022-10-31T15:02:43;9.40;;;7.15;;
46348;SDS011;32057;47.830;19.046;2022-10-31T15:05:12;9.25;;;5.82;;
46348;SDS011;32057;47.830;19.046;2022-10-31T15:07:48;8.35;;;6.53;;
46348;SDS011;32057;47.830;19.046;2022-10-31T15:10:51;9.77;;;6.10;;
46348;SDS011;32057;47.830;19.046;2022-10-31T15:13:15;8.03;;;5.60;;
46348;SDS011;32057;47.830;19.046;2022-10-31T15:15:43;8.25;;;5.55;;
46348;SDS011;32057;47.830;19.046;2022-10-31T15:18:15;9.15;;;5.45;;
46348;SDS011;32057;47.830;19.046;2022-10-31T15:20:43;7.07;;;5.07;;
46348;SDS011;32057;47.830;19.046;2022-10-31T15:23:14;12.63;;;6.50;;
46348;SDS011;32057;47.830;19.046;2022-10-31T15:25:41;8.75;;;4.95;;
46348;SDS011;32057;47.830;19.046;2022-10-31T15:28:14;10.23;;;5.32;;
46348;SDS011;32057;47.830;19.046;2022-10-31T15:30:48;7.95;;;5.35;;
46348;SDS011;32057;47.830;19.046;2022-10-31T15:33:18;7.45;;;4.93;;
46348;SDS011;32057;47.830;19.046;2022-10-31T15:35:54;8.00;;;5.30;;
46348;SDS011;32057;47.830;19.046;2022-10-31T15:38:21;11.85;;;6.65;;
46348;SDS011;32057;47.830;19.046;2022-10-31T15:41:22;6.88;;;4.40;;
46348;SDS011;32057;47.830;19.046;2022-10-31T15:44:10;7.88;;;4.90;;
46348;SDS011;32057;47.830;19.046;2022-10-31T15:46:44;6.00;;;4.60;;
46348;SDS011;32057;47.830;19.046;2022-10-31T15:52:04;8.05;;;4.65;;
46348;SDS011;32057;47.830;19.046;2022-10-31T15:54:36;5.47;;;3.70;;
46348;SDS011;32057;47.830;19.046;2022-10-31T15:57:11;6.00;;;4.90;;
46348;SDS011;32057;47.830;19.046;2022-10-31T15:59:37;9.57;;;5.60;;
46348;SDS011;32057;47.830;19.046;2022-10-31T16:02:10;4.10;;;3.67;;
46348;SDS011;32057;47.830;19.046;2022-10-31T16:04:37;5.50;;;4.35;;
46348;SDS011;32057;47.830;19.046;2022-10-31T16:07:23;5.95;;;4.38;;
46348;SDS011;32057;47.830;19.046;2022-10-31T16:09:54;7.53;;;4.13;;
46348;SDS011;32057;47.830;19.046;2022-10-31T16:12:33;7.63;;;4.85;;
46348;SDS011;32057;47.830;19.046;2022-10-31T16:15:01;7.68;;;4.50;;
46348;SDS011;32057;47.830;19.046;2022-10-31T16:17:28;6.68;;;4.35;;
46348;SDS011;32057;47.830;19.046;2022-10-31T16:19:57;8.10;;;5.25;;
46348;SDS011;32057;47.830;19.046;2022-10-31T16:22:33;7.00;;;5.28;;
46348;SDS011;32057;47.830;19.046;2022-10-31T16:25:08;5.20;;;3.58;;
46348;SDS011;32057;47.830;19.046;2022-10-31T16:27:47;7.25;;;3.28;;
46348;SDS011;32057;47.830;19.046;2022-10-31T16:30:35;4.93;;;3.60;;
46348;SDS011;32057;47.830;19.046;2022-10-31T16:33:50;4.57;;;3.72;;
46348;SDS011;32057;47.830;19.046;2022-10-31T16:35:56;5.13;;;3.30;;
46348;SDS011;32057;47.830;19.046;2022-10-31T16:38:22;4.80;;;3.67;;
46348;SDS011;32057;47.830;19.046;2022-10-31T16:40:48;6.32;;;4.85;;
46348;SDS011;32057;47.830;19.046;2022-10-31T16:43:15;8.52;;;4.55;;
46348;SDS011;32057;47.830;19.046;2022-10-31T16:45:50;7.43;;;4.43;;
46348;SDS011;32057;47.830;19.046;2022-10-31T16:48:17;7.32;;;5.57;;
46348;SDS011;32057;47.830;19.046;2022-10-31T16:50:46;5.50;;;4.70;;
46348;SDS011;32057;47.830;19.046;2022-10-31T16:53:12;8.05;;;5.32;;
46348;SDS011;32057;47.830;19.046;2022-10-31T16:58:52;9.35;;;5.65;;
46348;SDS011;32057;47.830;19.046;2022-10-31T17:01:18;8.30;;;5.32;;
46348;SDS011;32057;47.830;19.046;2022-10-31T17:03:43;8.20;;;5.68;;
46348;SDS011;32057;47.830;19.046;2022-10-31T17:06:12;9.13;;;5.03;;
46348;SDS011;32057;47.830;19.046;2022-10-31T17:08:38;6.63;;;4.50;;
46348;SDS011;32057;47.830;19.046;2022-10-31T17:11:03;8.07;;;4.85;;
46348;SDS011;32057;47.830;19.046;2022-10-31T17:13:30;11.07;;;5.13;;
46348;SDS011;32057;47.830;19.046;2022-10-31T17:15:59;8.25;;;5.18;;